Time;durP1;ratioP1;P1;durP2;ratioP2;P2;SDS_P1;SDS_P2;PMS_P1;PMS_P2;Temp;Humidity;BMP_temperature;BMP_pressure;BME280_temperature;BME280_humidity;BME280_pressure;Samples;Min_cycle;Max_cycle;Signal;HPM_P1;HPM_P2
2021/06/25 00:02:03;;;;;;;11.85;9.98;;;13.90;99.90;;;;;;5034544;28;20482;-70
2021/06/25 00:04:29;;;;;;;12.13;10.07;;;13.90;99.90;;;;;;5033488;28;20099;-70
2021/06/25 00:06:54;;;;;;;12.18;9.63;;;13.90;99.90;;;;;;5034963;28;20560;-70
2021/06/25 00:09:20;;;;;;;10.23;9.23;;;13.90;99.90;;;;;;5034730;28;20046;-70
2021/06/25 00:11:46;;;;;;;12.85;9.95;;;13.90;99.90;;;;;;5034342;28;20478;-70
2021/06/25 00:14:12;;;;;;;12.85;10.13;;;13.80;99.90;;;;;;5034422;28;20088;-70
2021/06/25 00:16:37;;;;;;;11.27;9.23;;;13.80;99.90;;;;;;5034188;28;20052;-70
2021/06/25 00:19:03;;;;;;;11.07;9.98;;;13.80;99.90;;;;;;5033506;28;20037;-70
2021/06/25 00:21:29;;;;;;;10.90;9.80;;;13.70;99.90;;;;;;5034272;28;20505;-70
2021/06/25 00:23:55;;;;;;;10.98;9.82;;;13.70;99.90;;;;;;5034476;28;20064;-70
2021/06/25 00:26:20;;;;;;;11.73;9.40;;;13.60;99.90;;;;;;5034462;28;20076;-70
2021/06/25 00:28:46;;;;;;;10.75;9.43;;;13.60;99.90;;;;;;5033783;28;20038;-70
2021/06/25 00:31:12;;;;;;;11.18;9.18;;;13.60;99.90;;;;;;5033963;28;20048;-70
2021/06/25 00:33:37;;;;;;;10.10;8.98;;;13.60;99.90;;;;;;5034141;28;20033;-70
2021/06/25 00:36:04;;;;;;;11.70;10.07;;;13.60;99.90;;;;;;5033952;28;20042;-70
2021/06/25 00:38:29;;;;;;;10.02;9.02;;;13.50;99.90;;;;;;5032390;28;20413;-70
2021/06/25 00:40:55;;;;;;;12.65;9.52;;;13.50;99.90;;;;;;5033752;28;20044;-70
2021/06/25 00:43:21;;;;;;;11.63;9.40;;;13.40;99.90;;;;;;5033829;28;20115;-70
2021/06/25 00:45:46;;;;;;;15.25;10.48;;;13.40;99.90;;;;;;5033928;28;20543;-70
2021/06/25 00:48:12;;;;;;;12.13;10.32;;;13.40;99.90;;;;;;5033765;28;20042;-70
2021/06/25 00:50:38;;;;;;;11.52;10.35;;;13.40;99.90;;;;;;5032255;28;20040;-70
2021/06/25 00:53:04;;;;;;;11.75;10.55;;;13.30;99.90;;;;;;5033623;28;20087;-70
2021/06/25 00:55:44;;;;;;;12.23;10.82;;;13.30;99.90;;;;;;5033932;28;20056;-70
2021/06/25 00:58:12;;;;;;;14.13;10.85;;;13.20;99.90;;;;;;5033949;28;20485;-70
2021/06/25 01:00:38;;;;;;;11.75;10.45;;;13.20;99.90;;;;;;5032254;28;20091;-70
2021/06/25 01:03:04;;;;;;;12.45;11.13;;;13.10;99.90;;;;;;5033643;28;20033;-70
2021/06/25 01:05:30;;;;;;;14.48;10.98;;;13.10;99.90;;;;;;5033772;28;20045;-70
2021/06/25 01:07:56;;;;;;;13.43;12.02;;;13.10;99.90;;;;;;5034060;28;20075;-70
2021/06/25 01:10:22;;;;;;;13.05;11.00;;;13.10;99.90;;;;;;5033057;28;20400;-70
2021/06/25 01:12:48;;;;;;;12.90;11.38;;;13.10;99.90;;;;;;5033941;28;20038;-70
2021/06/25 01:15:14;;;;;;;12.18;10.90;;;13.10;99.90;;;;;;5033737;28;20064;-70
2021/06/25 01:17:42;;;;;;;14.80;11.43;;;13.10;99.90;;;;;;5033418;28;20458;-70
2021/06/25 01:20:11;;;;;;;13.10;11.70;;;13.00;99.90;;;;;;5033105;28;20033;-70
2021/06/25 01:22:41;;;;;;;11.52;10.32;;;12.90;99.90;;;;;;5033635;28;20049;-70
2021/06/25 01:25:28;;;;;;;10.20;8.48;;;12.80;99.90;;;;;;5033293;28;20037;-70
2021/06/25 01:27:57;;;;;;;8.65;7.53;;;12.90;99.90;;;;;;5033418;28;20041;-70
2021/06/25 01:30:29;;;;;;;9.23;8.23;;;12.80;99.90;;;;;;5036100;28;20053;-70
2021/06/25 01:32:56;;;;;;;8.70;7.87;;;12.70;99.90;;;;;;5037441;28;20037;-70
2021/06/25 01:35:22;;;;;;;8.20;7.40;;;12.70;99.90;;;;;;5037375;28;20045;-70
2021/06/25 01:37:48;;;;;;;9.85;8.85;;;12.70;99.90;;;;;;5037499;28;20041;-70
2021/06/25 01:40:16;;;;;;;9.70;8.43;;;12.60;99.90;;;;;;5036938;28;20056;-70
2021/06/25 01:42:43;;;;;;;7.72;6.85;;;12.50;99.90;;;;;;5037233;28;20048;-70
2021/06/25 01:45:12;;;;;;;7.82;6.70;;;12.50;99.90;;;;;;5037129;28;20092;-70
2021/06/25 01:47:39;;;;;;;6.57;5.93;;;12.40;99.90;;;;;;5037218;28;20053;-70
2021/06/25 01:50:08;;;;;;;7.57;6.00;;;12.40;99.90;;;;;;5037066;28;20037;-70
2021/06/25 01:52:34;;;;;;;6.38;5.78;;;12.30;99.90;;;;;;5035736;28;20096;-70
2021/06/25 01:55:00;;;;;;;8.52;6.50;;;12.30;99.90;;;;;;5037523;28;20041;-70
2021/06/25 01:57:26;;;;;;;6.35;5.65;;;12.40;99.90;;;;;;5035851;28;20033;-70
2021/06/25 01:59:52;;;;;;;5.85;5.28;;;12.30;99.90;;;;;;5036453;28;20041;-70
2021/06/25 02:02:18;;;;;;;7.00;5.60;;;12.30;99.90;;;;;;5036862;28;20091;-70
2021/06/25 02:04:43;;;;;;;7.53;6.72;;;12.20;99.90;;;;;;5037107;28;20112;-70
2021/06/25 02:07:09;;;;;;;6.82;6.13;;;12.20;99.90;;;;;;5036649;28;20041;-70
2021/06/25 02:09:35;;;;;;;6.65;5.32;;;12.10;99.90;;;;;;5036278;28;20037;-70
2021/06/25 02:12:02;;;;;;;6.43;5.82;;;12.00;99.90;;;;;;5036568;28;20037;-70
2021/06/25 02:14:27;;;;;;;8.88;5.90;;;12.00;99.90;;;;;;5036629;28;20045;-70
2021/06/25 02:16:53;;;;;;;13.75;5.93;;;12.00;99.90;;;;;;5036376;28;20045;-70
2021/06/25 02:19:19;;;;;;;6.40;5.80;;;12.00;99.90;;;;;;5036321;28;20064;-70
2021/06/25 02:21:45;;;;;;;6.13;5.53;;;12.00;99.90;;;;;;5035114;28;20402;-70
2021/06/25 02:24:10;;;;;;;5.63;5.13;;;12.00;99.90;;;;;;5036475;28;20033;-70
2021/06/25 02:26:36;;;;;;;5.75;4.65;;;12.00;99.90;;;;;;5035177;28;20041;-70
2021/06/25 02:29:02;;;;;;;6.00;4.97;;;12.00;99.90;;;;;;5036050;28;20502;-70
2021/06/25 02:31:27;;;;;;;5.10;4.57;;;12.00;99.90;;;;;;5036033;28;20056;-70
2021/06/25 02:33:53;;;;;;;5.25;4.63;;;11.90;99.90;;;;;;5035427;28;20037;-70
2021/06/25 02:36:19;;;;;;;6.07;5.47;;;11.90;99.90;;;;;;5036013;28;20401;-70
2021/06/25 02:38:44;;;;;;;8.18;5.65;;;11.90;99.90;;;;;;5036080;28;20083;-70
2021/06/25 02:41:10;;;;;;;6.57;5.05;;;11.90;99.90;;;;;;5035062;28;20048;-70
2021/06/25 02:43:36;;;;;;;9.60;5.75;;;11.90;99.90;;;;;;5036053;28;20044;-70
2021/06/25 02:46:01;;;;;;;6.80;6.10;;;11.90;99.90;;;;;;5036029;28;20045;-70
2021/06/25 02:48:27;;;;;;;6.68;6.07;;;11.90;99.90;;;;;;5035799;28;20033;-71
2021/06/25 02:50:53;;;;;;;7.18;5.85;;;11.90;99.90;;;;;;5035884;28;20041;-70
2021/06/25 02:53:19;;;;;;;7.85;5.97;;;11.70;99.90;;;;;;5035877;28;20104;-70
2021/06/25 02:55:50;;;;;;;8.15;6.20;;;11.70;99.90;;;;;;5034562;28;20108;-70
2021/06/25 02:58:24;;;;;;;8.63;6.35;;;11.80;99.90;;;;;;5036220;28;20140;-70
2021/06/25 03:00:52;;;;;;;7.70;6.90;;;11.80;99.90;;;;;;5035756;28;20516;-70
2021/06/25 03:03:19;;;;;;;8.70;7.80;;;11.80;99.90;;;;;;5035745;28;20069;-70
2021/06/25 03:05:46;;;;;;;9.55;8.60;;;11.80;99.90;;;;;;5035917;28;20041;-70
2021/06/25 03:08:15;;;;;;;11.95;10.48;;;11.80;99.90;;;;;;5035756;28;20120;-70
2021/06/25 03:10:42;;;;;;;9.05;8.00;;;11.90;99.90;;;;;;5035153;28;20049;-70
2021/06/25 03:13:08;;;;;;;9.25;8.15;;;11.90;99.90;;;;;;5035723;28;20485;-70
2021/06/25 03:15:34;;;;;;;10.75;8.10;;;11.90;99.90;;;;;;5035504;28;20041;-70
2021/06/25 03:18:00;;;;;;;10.32;8.30;;;11.90;99.90;;;;;;5035408;28;20041;-70
2021/06/25 03:20:26;;;;;;;9.90;8.90;;;11.90;99.90;;;;;;5035310;28;20041;-70
2021/06/25 03:22:51;;;;;;;8.40;7.53;;;11.80;99.90;;;;;;5035363;28;20041;-70
2021/06/25 03:25:17;;;;;;;7.30;6.40;;;11.90;99.90;;;;;;5035353;28;20040;-70
2021/06/25 03:27:43;;;;;;;6.97;6.15;;;11.80;99.90;;;;;;5035356;28;20098;-70
2021/06/25 03:30:10;;;;;;;10.75;7.75;;;11.80;99.90;;;;;;5034754;28;20163;-70
2021/06/25 03:32:36;;;;;;;9.68;7.93;;;11.80;99.90;;;;;;5034944;28;20045;-70
2021/06/25 03:35:03;;;;;;;8.70;7.68;;;11.70;99.90;;;;;;5035318;28;20042;-70
2021/06/25 03:37:29;;;;;;;8.70;7.90;;;11.70;99.90;;;;;;5035193;28;20041;-70
2021/06/25 03:39:55;;;;;;;9.55;8.23;;;11.70;99.90;;;;;;5034910;28;20531;-70
2021/06/25 03:42:21;;;;;;;8.90;8.02;;;11.70;99.90;;;;;;5035264;28;20048;-70
2021/06/25 03:44:46;;;;;;;8.20;7.40;;;11.70;99.90;;;;;;5035210;28;20041;-70
2021/06/25 03:47:12;;;;;;;5.53;5.03;;;11.60;99.90;;;;;;5035243;28;20401;-70
2021/06/25 03:49:38;;;;;;;6.72;5.57;;;11.50;99.90;;;;;;5034648;28;20112;-70
2021/06/25 03:52:05;;;;;;;6.22;5.63;;;11.60;99.90;;;;;;5034570;28;20087;-70
2021/06/25 03:54:30;;;;;;;5.18;4.68;;;11.50;99.90;;;;;;5035025;28;20038;-70
2021/06/25 03:56:56;;;;;;;4.90;4.40;;;11.40;99.90;;;;;;5034865;28;20044;-70
2021/06/25 03:59:22;;;;;;;5.00;4.50;;;11.50;99.90;;;;;;5034267;28;20478;-70
2021/06/25 04:01:48;;;;;;;6.28;4.80;;;11.50;99.90;;;;;;5034371;28;20092;-70
2021/06/25 04:04:14;;;;;;;6.93;5.80;;;11.60;99.90;;;;;;5034703;28;20037;-70
2021/06/25 04:06:40;;;;;;;8.07;6.25;;;11.60;99.90;;;;;;5034520;28;20041;-70
2021/06/25 04:09:06;;;;;;;5.68;5.07;;;11.70;99.90;;;;;;5034226;28;20037;-70
2021/06/25 04:11:33;;;;;;;5.93;5.32;;;11.60;99.90;;;;;;5034546;28;20040;-70
2021/06/25 04:13:59;;;;;;;5.78;4.60;;;11.60;99.90;;;;;;5034361;28;20044;-70
2021/06/25 04:16:25;;;;;;;6.35;5.65;;;11.60;99.90;;;;;;5034863;28;20103;-70
2021/06/25 04:18:50;;;;;;;5.93;5.32;;;11.70;99.90;;;;;;5034149;28;20041;-70
2021/06/25 04:21:16;;;;;;;7.85;6.20;;;11.70;99.90;;;;;;5034364;28;20049;-70
2021/06/25 04:23:42;;;;;;;6.70;5.97;;;11.70;99.90;;;;;;5034147;28;20034;-70
2021/06/25 04:26:08;;;;;;;7.97;5.90;;;11.80;99.90;;;;;;5034243;28;20037;-70
2021/06/25 04:28:41;;;;;;;5.53;5.03;;;11.70;99.90;;;;;;5033954;28;20042;-70
2021/06/25 04:31:06;;;;;;;48.83;7.75;;;11.70;99.90;;;;;;5034213;28;20071;-70
2021/06/25 04:33:32;;;;;;;6.57;5.95;;;11.70;99.90;;;;;;5034010;28;20037;-70
2021/06/25 04:35:58;;;;;;;6.63;5.88;;;11.70;99.90;;;;;;5033894;28;20508;-70
2021/06/25 04:38:24;;;;;;;5.35;4.60;;;11.80;99.90;;;;;;5033862;28;20045;-70
2021/06/25 04:40:50;;;;;;;5.40;4.90;;;11.90;99.90;;;;;;5033516;28;20544;-70
2021/06/25 04:43:16;;;;;;;5.03;4.60;;;11.90;99.90;;;;;;5033859;28;20048;-70
2021/06/25 04:45:44;;;;;;;4.85;4.40;;;11.90;99.90;;;;;;5034071;28;20049;-69
2021/06/25 04:48:12;;;;;;;5.40;4.90;;;11.90;99.90;;;;;;5032829;28;20079;-69
2021/06/25 04:50:40;;;;;;;4.25;3.92;;;11.90;99.90;;;;;;5033365;28;20042;-69
2021/06/25 04:53:06;;;;;;;6.10;5.53;;;12.00;99.90;;;;;;5033825;28;20404;-69
2021/06/25 04:55:40;;;;;;;5.72;5.13;;;12.20;99.90;;;;;;5033570;28;20069;-69
2021/06/25 04:58:11;;;;;;;5.18;4.68;;;12.40;99.90;;;;;;5033635;28;20037;-68
2021/06/25 05:00:37;;;;;;;5.10;4.70;;;12.60;99.90;;;;;;5033240;28;20113;-69
2021/06/25 05:03:05;;;;;;;4.55;4.15;;;12.90;99.90;;;;;;5033554;28;20045;-69
2021/06/25 05:05:32;;;;;;;4.55;4.15;;;13.30;99.90;;;;;;5031884;28;20076;-69
2021/06/25 05:07:58;;;;;;;4.68;4.28;;;13.50;99.90;;;;;;5033874;28;20083;-69
2021/06/25 05:10:24;;;;;;;5.25;4.35;;;13.70;99.90;;;;;;5033162;28;20500;-69
2021/06/25 05:12:50;;;;;;;4.63;4.22;;;13.90;99.90;;;;;;5033419;28;20038;-69
2021/06/25 05:15:16;;;;;;;3.78;3.47;;;14.20;99.90;;;;;;5033374;28;20409;-69
2021/06/25 05:17:41;;;;;;;3.42;3.13;;;14.40;99.90;;;;;;5033205;28;20077;-70
2021/06/25 05:20:08;;;;;;;4.78;3.90;;;14.70;99.90;;;;;;5033181;28;20072;-69
2021/06/25 05:22:34;;;;;;;4.05;3.65;;;15.00;99.90;;;;;;5033290;28;20106;-69
2021/06/25 05:25:00;;;;;;;5.32;4.25;;;15.30;99.90;;;;;;5033407;28;20072;-69
2021/06/25 05:27:25;;;;;;;6.97;4.50;;;15.60;99.90;;;;;;5033294;28;20136;-70
2021/06/25 05:29:51;;;;;;;6.97;5.15;;;15.90;99.90;;;;;;5032988;28;20379;-69
2021/06/25 05:32:17;;;;;;;5.38;4.78;;;16.20;99.50;;;;;;5033421;28;20048;-69
2021/06/25 05:34:45;;;;;;;6.80;5.97;;;16.40;99.40;;;;;;5033403;28;20033;-70
2021/06/25 05:37:11;;;;;;;6.57;5.85;;;16.70;98.90;;;;;;5033640;28;20041;-70
2021/06/25 05:39:37;;;;;;;7.53;6.80;;;16.80;98.70;;;;;;5032839;28;20494;-70
2021/06/25 05:42:03;;;;;;;6.97;6.28;;;17.00;98.50;;;;;;5033124;28;20038;-70
2021/06/25 05:44:29;;;;;;;10.60;7.50;;;17.20;98.50;;;;;;5032212;28;20038;-70
2021/06/25 05:46:55;;;;;;;7.47;6.65;;;17.50;98.30;;;;;;5033485;28;20049;-70
2021/06/25 05:49:20;;;;;;;7.75;6.78;;;17.60;98.20;;;;;;5032837;28;20037;-70
2021/06/25 05:51:47;;;;;;;9.00;8.10;;;17.80;97.70;;;;;;5033275;28;20042;-70
2021/06/25 05:54:12;;;;;;;11.20;7.47;;;17.90;97.40;;;;;;5033379;28;20041;-70
2021/06/25 05:56:38;;;;;;;11.63;7.95;;;18.10;97.30;;;;;;5032797;28;20050;-70
2021/06/25 05:59:04;;;;;;;12.70;9.32;;;18.40;96.90;;;;;;5032751;28;20095;-70
2021/06/25 06:01:30;;;;;;;9.55;8.65;;;18.70;96.40;;;;;;5033140;28;20037;-70
2021/06/25 06:03:56;;;;;;;10.75;9.00;;;18.90;96.30;;;;;;5032924;28;20045;-70
2021/06/25 06:06:22;;;;;;;12.93;9.93;;;19.00;96.40;;;;;;5032778;28;20041;-70
2021/06/25 06:08:47;;;;;;;10.13;9.10;;;19.20;95.60;;;;;;5031459;28;20124;-71
2021/06/25 06:11:13;;;;;;;9.85;8.90;;;19.40;95.70;;;;;;5032805;28;20076;-70
2021/06/25 06:13:39;;;;;;;12.52;10.90;;;19.70;95.30;;;;;;5032870;28;20397;-71
2021/06/25 06:16:05;;;;;;;11.38;10.15;;;19.80;95.00;;;;;;5035077;28;20104;-71
2021/06/25 06:18:37;;;;;;;11.55;10.35;;;20.00;94.60;;;;;;5036303;28;20045;-71
2021/06/25 06:21:03;;;;;;;12.38;10.75;;;20.00;93.70;;;;;;5037037;28;20431;-70
2021/06/25 06:31:49;;;;;;;11.48;10.32;;;19.70;94.00;;;;;;5036140;28;20460;-70
2021/06/25 06:34:15;;;;;;;11.32;10.07;;;20.10;93.80;;;;;;5036745;28;20037;-70
2021/06/25 06:36:45;;;;;;;11.07;9.90;;;20.40;93.20;;;;;;5036272;28;20482;-70
2021/06/25 06:39:13;;;;;;;12.23;10.18;;;20.70;93.00;;;;;;5035943;28;20556;-70
2021/06/25 06:41:40;;;;;;;11.95;9.90;;;20.70;92.90;;;;;;5035988;28;20033;-70
2021/06/25 06:44:07;;;;;;;11.25;9.95;;;20.90;92.40;;;;;;5036048;28;20049;-70
2021/06/25 06:46:34;;;;;;;11.00;9.07;;;20.70;91.60;;;;;;5036583;28;20053;-70
2021/06/25 06:49:01;;;;;;;10.82;9.20;;;20.90;91.60;;;;;;5035627;28;20037;-70
2021/06/25 06:51:27;;;;;;;10.32;9.32;;;21.30;91.80;;;;;;5036187;28;20076;-70
2021/06/25 06:53:56;;;;;;;10.70;9.38;;;21.20;90.90;;;;;;5036083;28;20041;-69
2021/06/25 06:56:23;;;;;;;10.13;9.00;;;21.30;90.40;;;;;;5036236;28;20470;-69
2021/06/25 06:58:51;;;;;;;11.23;8.82;;;21.50;90.20;;;;;;5035719;28;20160;-70
2021/06/25 07:01:17;;;;;;;13.18;8.55;;;21.80;89.30;;;;;;5035946;28;20499;-70
2021/06/25 07:03:44;;;;;;;9.90;8.52;;;21.50;87.80;;;;;;5035850;28;20037;-70
2021/06/25 07:06:10;;;;;;;11.40;9.25;;;21.90;87.70;;;;;;5035681;28;20429;-70
2021/06/25 07:08:35;;;;;;;9.90;8.95;;;22.20;85.80;;;;;;5035328;28;20052;-69
2021/06/25 07:11:02;;;;;;;10.00;9.10;;;22.00;85.50;;;;;;5036041;28;20052;-69
2021/06/25 07:13:29;;;;;;;8.52;7.68;;;22.00;86.60;;;;;;5036149;28;20121;-69
2021/06/25 07:15:55;;;;;;;11.35;8.60;;;21.80;87.10;;;;;;5035457;28;20045;-69
2021/06/25 07:18:22;;;;;;;11.15;8.88;;;21.60;86.10;;;;;;5035851;28;20043;-69
2021/06/25 07:20:47;;;;;;;9.40;7.35;;;21.40;87.30;;;;;;5035240;28;20041;-69
2021/06/25 07:23:13;;;;;;;9.60;7.47;;;21.50;88.20;;;;;;5034652;28;20125;-69
2021/06/25 07:25:39;;;;;;;9.88;8.48;;;21.60;86.90;;;;;;5035877;28;20175;-69
2021/06/25 07:28:06;;;;;;;9.23;8.15;;;21.50;86.30;;;;;;5035244;28;20501;-69
2021/06/25 07:30:32;;;;;;;10.05;7.95;;;21.60;87.40;;;;;;5035080;28;20103;-69
2021/06/25 07:32:58;;;;;;;8.38;7.50;;;22.10;86.30;;;;;;5035468;28;20470;-69
2021/06/25 07:35:23;;;;;;;10.70;7.60;;;22.30;84.30;;;;;;5035143;28;20091;-69
2021/06/25 07:37:49;;;;;;;9.60;7.28;;;22.40;83.30;;;;;;5035328;28;20398;-69
2021/06/25 07:40:15;;;;;;;9.27;8.38;;;22.80;84.20;;;;;;5033308;28;20049;-69
2021/06/25 07:42:42;;;;;;;10.60;8.80;;;22.80;83.40;;;;;;5034757;28;20112;-69
2021/06/25 07:45:10;;;;;;;11.00;7.78;;;23.00;81.20;;;;;;5035182;28;20133;-69
2021/06/25 07:47:41;;;;;;;10.40;7.55;;;23.00;82.30;;;;;;5035008;28;20052;-69
2021/06/25 07:50:10;;;;;;;8.07;7.38;;;23.00;83.00;;;;;;5034516;28;20048;-69
2021/06/25 07:52:36;;;;;;;7.75;6.95;;;23.30;82.70;;;;;;5035067;28;20046;-69
2021/06/25 07:55:22;;;;;;;9.80;7.70;;;23.30;80.90;;;;;;5034018;28;20055;-69
2021/06/25 07:57:47;;;;;;;7.90;7.05;;;23.40;79.40;;;;;;5034605;28;20037;-69
2021/06/25 08:00:13;;;;;;;9.25;7.05;;;23.40;80.20;;;;;;5034202;28;20061;-69
2021/06/25 08:02:40;;;;;;;7.50;6.80;;;23.50;78.60;;;;;;5034959;28;20096;-69
2021/06/25 08:05:06;;;;;;;7.57;6.85;;;23.40;79.40;;;;;;5034494;28;20116;-69
2021/06/25 08:07:33;;;;;;;9.38;8.45;;;23.40;80.20;;;;;;5034339;28;20600;-69
2021/06/25 08:09:59;;;;;;;9.02;7.97;;;23.00;79.40;;;;;;5032846;28;20057;-69
2021/06/25 08:12:24;;;;;;;9.70;7.38;;;22.70;80.80;;;;;;5035175;28;20405;-69
2021/06/25 08:14:50;;;;;;;7.88;6.75;;;22.70;81.90;;;;;;5034410;28;20041;-69
2021/06/25 08:17:16;;;;;;;7.15;6.45;;;22.60;81.80;;;;;;5034245;28;20048;-69
2021/06/25 08:19:42;;;;;;;10.70;7.13;;;22.70;81.30;;;;;;5033990;28;20045;-69
2021/06/25 08:22:08;;;;;;;7.65;6.72;;;22.60;81.60;;;;;;5033455;28;20128;-70
2021/06/25 08:24:34;;;;;;;8.27;6.53;;;22.80;80.20;;;;;;5034469;28;20041;-69
2021/06/25 08:27:01;;;;;;;8.35;6.35;;;22.60;81.30;;;;;;5034229;28;20045;-69
2021/06/25 08:29:27;;;;;;;7.10;5.32;;;22.40;81.00;;;;;;5034005;28;20042;-69
2021/06/25 08:31:53;;;;;;;7.40;6.65;;;22.20;82.30;;;;;;5034063;28;20458;-70
2021/06/25 08:34:19;;;;;;;9.98;7.13;;;22.00;82.50;;;;;;5034273;28;20065;-70
2021/06/25 08:36:44;;;;;;;7.90;6.97;;;21.80;83.90;;;;;;5034537;28;20393;-69
2021/06/25 08:39:10;;;;;;;8.77;7.90;;;21.80;85.00;;;;;;5032838;28;20052;-70
2021/06/25 08:41:37;;;;;;;8.02;6.93;;;21.80;83.90;;;;;;5033815;28;20449;-69
2021/06/25 08:44:05;;;;;;;10.55;8.38;;;22.20;82.70;;;;;;5033981;28;20037;-70
2021/06/25 08:46:32;;;;;;;8.85;7.40;;;22.20;84.60;;;;;;5034181;28;20041;-69
2021/06/25 08:49:00;;;;;;;8.90;8.00;;;21.90;85.40;;;;;;5033513;28;20073;-70
2021/06/25 08:51:26;;;;;;;8.52;7.70;;;21.70;84.40;;;;;;5033732;28;20041;-71
2021/06/25 08:53:52;;;;;;;8.38;7.57;;;21.60;84.50;;;;;;5033855;28;20075;-70
2021/06/25 08:56:18;;;;;;;9.90;7.60;;;21.50;85.90;;;;;;5033805;28;20037;-70
2021/06/25 08:58:44;;;;;;;8.25;7.45;;;21.40;84.20;;;;;;5033247;28;20048;-70
2021/06/25 09:01:11;;;;;;;8.93;8.13;;;21.40;83.50;;;;;;5033502;28;20504;-70
2021/06/25 09:03:40;;;;;;;8.80;8.00;;;21.10;84.00;;;;;;5033670;28;20044;-70
2021/06/25 09:06:14;;;;;;;11.32;8.63;;;21.00;84.00;;;;;;5033988;28;20059;-70
2021/06/25 09:08:42;;;;;;;10.60;8.30;;;21.00;83.60;;;;;;5033133;28;20056;-70
2021/06/25 09:11:24;;;;;;;10.55;8.20;;;21.00;84.80;;;;;;5033586;28;20037;-70
2021/06/25 09:14:02;;;;;;;10.80;9.63;;;21.10;85.20;;;;;;5033668;28;20044;-70
2021/06/25 09:16:35;;;;;;;10.45;8.27;;;21.10;81.10;;;;;;5033245;28;20096;-70
2021/06/25 09:19:06;;;;;;;9.18;7.25;;;21.50;83.00;;;;;;5033073;28;20551;-70
2021/06/25 09:21:36;;;;;;;9.07;8.05;;;21.70;81.50;;;;;;5033660;28;20037;-71
2021/06/25 09:24:22;;;;;;;10.57;8.05;;;21.60;79.70;;;;;;5033352;28;20442;-71
2021/06/25 09:26:49;;;;;;;8.13;7.10;;;21.80;76.80;;;;;;5033204;28;20172;-71
2021/06/25 09:29:22;;;;;;;8.07;6.57;;;22.00;79.70;;;;;;5032921;28;20481;-71
2021/06/25 09:32:04;;;;;;;6.60;5.90;;;22.20;80.40;;;;;;5033131;28;20033;-71
2021/06/25 09:34:51;;;;;;;9.25;6.53;;;22.20;79.40;;;;;;5033889;28;20037;-70
2021/06/25 09:37:20;;;;;;;7.50;6.65;;;22.30;77.30;;;;;;5032768;28;20038;-70
2021/06/25 09:40:00;;;;;;;13.18;6.13;;;22.20;75.80;;;;;;5033062;28;20475;-70
2021/06/25 09:42:26;;;;;;;6.47;5.38;;;22.20;74.50;;;;;;5033528;28;20108;-71
2021/06/25 09:45:04;;;;;;;6.68;5.05;;;22.10;80.00;;;;;;5033085;28;20124;-70
2021/06/25 09:47:37;;;;;;;8.05;6.28;;;21.90;78.80;;;;;;5024426;28;20048;-70
2021/06/25 09:50:10;;;;;;;7.80;6.10;;;21.80;77.30;;;;;;5013794;28;20045;-70
2021/06/25 09:53:09;;;;;;;12.75;5.80;;;21.60;81.20;;;;;;5017347;28;20038;-70
2021/06/25 09:55:49;;;;;;;9.60;6.38;;;21.30;79.70;;;;;;4994886;28;20049;-70
2021/06/25 09:58:34;;;;;;;11.35;8.00;;;21.10;81.10;;;;;;5017148;28;20402;-70
2021/06/25 10:01:23;;;;;;;9.73;7.30;;;20.90;82.10;;;;;;5017272;28;20402;-70
2021/06/25 10:03:53;;;;;;;9.63;8.02;;;20.60;81.70;;;;;;5017413;28;20049;-70
2021/06/25 10:06:21;;;;;;;10.45;7.25;;;20.50;83.80;;;;;;5017940;28;20080;-70
2021/06/25 10:08:48;;;;;;;8.85;7.20;;;20.30;83.90;;;;;;5017039;28;20831;-70
2021/06/25 10:11:17;;;;;;;9.32;8.13;;;20.30;85.30;;;;;;5017041;28;20046;-70
2021/06/25 10:13:44;;;;;;;10.23;7.68;;;20.20;86.00;;;;;;5016784;28;20096;-70
2021/06/25 10:16:10;;;;;;;8.75;7.63;;;20.10;85.60;;;;;;5016795;28;20486;-70
2021/06/25 10:18:42;;;;;;;10.90;6.88;;;20.10;85.80;;;;;;5016584;28;20042;-68
2021/06/25 10:21:11;;;;;;;7.50;6.50;;;20.40;85.60;;;;;;5016146;28;20141;-67
2021/06/25 10:23:39;;;;;;;9.23;6.00;;;20.60;85.70;;;;;;5015360;28;20033;-68
2021/06/25 10:26:08;;;;;;;9.15;6.53;;;20.80;85.20;;;;;;5015473;28;20504;-68
2021/06/25 10:28:42;;;;;;;9.80;5.88;;;20.90;84.10;;;;;;5016304;28;20060;-68
2021/06/25 10:31:14;;;;;;;8.45;6.50;;;21.20;78.70;;;;;;5016625;28;20033;-68
2021/06/25 10:33:41;;;;;;;10.05;6.90;;;21.30;81.00;;;;;;5016309;28;20117;-68
2021/06/25 10:36:10;;;;;;;8.73;6.95;;;21.30;80.70;;;;;;5016161;28;20073;-68
2021/06/25 10:38:39;;;;;;;6.85;6.00;;;21.50;77.50;;;;;;5016204;28;20045;-67
2021/06/25 10:41:07;;;;;;;8.60;6.28;;;21.70;75.80;;;;;;5016128;28;20482;-68
2021/06/25 10:43:41;;;;;;;6.82;5.78;;;21.80;75.50;;;;;;5016481;28;20069;-68
2021/06/25 10:46:30;;;;;;;6.32;5.63;;;21.70;72.50;;;;;;5016318;28;20037;-68
2021/06/25 10:48:58;;;;;;;9.00;5.97;;;21.90;74.80;;;;;;5018848;28;20068;-68
2021/06/25 10:51:44;;;;;;;7.82;6.22;;;21.90;74.10;;;;;;5036249;28;20091;-68
2021/06/25 10:54:14;;;;;;;7.20;5.82;;;21.90;73.10;;;;;;5036297;28;20398;-68
2021/06/25 10:56:48;;;;;;;11.02;6.40;;;22.00;73.20;;;;;;5036432;28;20069;-68
2021/06/25 10:59:28;;;;;;;9.38;6.28;;;22.10;70.60;;;;;;5036012;28;20045;-69
2021/06/25 11:01:55;;;;;;;6.25;5.47;;;22.10;70.10;;;;;;5035193;28;20434;-69
2021/06/25 11:04:48;;;;;;;11.80;5.80;;;22.30;70.50;;;;;;5036001;28;20091;-68
2021/06/25 11:07:49;;;;;;;11.82;6.50;;;22.10;69.60;;;;;;5035432;28;20057;-68
2021/06/25 11:10:22;;;;;;;8.02;6.38;;;22.20;67.70;;;;;;5013616;28;20111;-68
2021/06/25 11:12:48;;;;;;;8.77;5.57;;;22.10;69.20;;;;;;5028300;28;20049;-68
2021/06/25 11:15:15;;;;;;;7.07;6.10;;;22.20;71.10;;;;;;5035722;28;20468;-69
2021/06/25 11:17:47;;;;;;;8.57;6.30;;;22.20;71.00;;;;;;5035763;28;20444;-69
2021/06/25 11:20:36;;;;;;;7.07;5.68;;;22.30;70.20;;;;;;5034126;28;20136;-69
2021/06/25 11:23:11;;;;;;;8.35;5.63;;;22.30;70.80;;;;;;5035405;28;20124;-69
2021/06/25 11:25:38;;;;;;;7.18;5.72;;;22.40;71.10;;;;;;5035245;28;20041;-69
2021/06/25 11:28:32;;;;;;;9.55;5.93;;;22.40;70.90;;;;;;5035250;28;20120;-68
2021/06/25 11:31:22;;;;;;;14.20;6.75;;;22.30;71.40;;;;;;5035343;28;20048;-69
2021/06/25 11:33:48;;;;;;;7.78;6.32;;;22.30;70.20;;;;;;5035286;28;20037;-71
2021/06/25 11:36:14;;;;;;;7.22;5.68;;;22.40;71.70;;;;;;5033961;28;20092;-71
2021/06/25 11:39:08;;;;;;;7.75;6.55;;;22.30;75.50;;;;;;5035077;28;20098;-71
2021/06/25 11:41:37;;;;;;;8.07;6.35;;;22.10;73.50;;;;;;5035150;28;20088;-71
2021/06/25 11:44:31;;;;;;;8.02;6.55;;;22.00;73.10;;;;;;5034082;28;20120;-71
2021/06/25 11:47:15;;;;;;;10.15;5.97;;;22.00;76.50;;;;;;5030278;28;20092;-70
2021/06/25 11:52:21;;;;;;;7.57;6.40;;;22.00;77.10;;;;;;5034865;28;20445;-71
2021/06/25 11:54:50;;;;;;;9.07;6.57;;;22.00;77.90;;;;;;5034897;28;20034;-71
2021/06/25 11:57:22;;;;;;;10.45;8.77;;;22.00;78.20;;;;;;5034691;28;20103;-71
2021/06/25 12:00:05;;;;;;;13.00;8.15;;;22.00;75.10;;;;;;5034541;28;20076;-71
2021/06/25 12:02:46;;;;;;;8.73;7.82;;;22.10;74.50;;;;;;5035466;28;20045;-71
2021/06/25 12:05:15;;;;;;;9.48;7.78;;;22.20;73.70;;;;;;5034530;28;20073;-71
2021/06/25 12:07:41;;;;;;;11.05;8.20;;;22.10;75.60;;;;;;5034693;28;20046;-71
2021/06/25 12:10:08;;;;;;;11.02;8.43;;;22.30;74.90;;;;;;5034093;28;20040;-71
2021/06/25 12:12:37;;;;;;;11.65;8.52;;;22.50;75.10;;;;;;5034388;28;20049;-71
2021/06/25 12:15:11;;;;;;;12.50;8.05;;;22.50;75.50;;;;;;5034345;28;20045;-71
2021/06/25 12:17:46;;;;;;;14.48;9.43;;;22.80;73.80;;;;;;5034504;28;20033;-71
2021/06/25 12:20:17;;;;;;;11.13;8.90;;;22.70;73.70;;;;;;5032813;28;20052;-70
2021/06/25 12:22:51;;;;;;;10.02;8.43;;;22.70;74.40;;;;;;5034355;28;20072;-70
2021/06/25 12:25:40;;;;;;;13.65;7.75;;;22.80;76.00;;;;;;5034149;28;20042;-68
2021/06/25 12:28:16;;;;;;;13.02;8.75;;;23.20;74.10;;;;;;5033970;28;20041;-68
2021/06/25 12:30:53;;;;;;;9.68;8.23;;;23.30;74.70;;;;;;5033796;28;20383;-68
2021/06/25 12:33:24;;;;;;;11.43;9.27;;;23.40;76.80;;;;;;5034196;28;20512;-68
2021/06/25 12:35:55;;;;;;;15.25;9.30;;;23.30;76.70;;;;;;5033869;28;20374;-68
2021/06/25 12:38:23;;;;;;;13.32;10.70;;;23.10;76.40;;;;;;5034430;28;20043;-68
2021/06/25 12:41:03;;;;;;;12.68;8.77;;;23.00;77.90;;;;;;5033410;28;20041;-68
2021/06/25 12:43:35;;;;;;;12.80;10.25;;;23.10;75.80;;;;;;5033965;28;20087;-68
2021/06/25 12:46:05;;;;;;;18.02;13.02;;;22.80;79.40;;;;;;5034084;28;20091;-67
2021/06/25 12:48:34;;;;;;;17.60;14.18;;;22.70;80.80;;;;;;5033483;28;20045;-68
2021/06/25 12:50:59;;;;;;;18.80;14.02;;;22.50;79.70;;;;;;5033563;28;20120;-68
2021/06/25 12:53:29;;;;;;;21.80;15.23;;;22.40;80.60;;;;;;5032139;28;20120;-68
2021/06/25 12:56:03;;;;;;;21.83;14.75;;;22.20;81.00;;;;;;5034457;28;20037;-69
2021/06/25 12:58:32;;;;;;;18.60;14.80;;;21.90;81.20;;;;;;5033923;28;20540;-66
2021/06/25 13:01:03;;;;;;;17.60;13.25;;;21.80;82.40;;;;;;5033437;28;20042;-68